createdAt,value
2022-11-05T00:03:25.594Z,8.10
2022-11-05T00:06:12.830Z,7.93
2022-11-05T00:09:00.006Z,6.97
2022-11-05T00:14:32.416Z,6.93
2022-11-05T00:16:59.856Z,7.38
2022-11-05T00:19:27.077Z,6.75
2022-11-05T00:22:13.082Z,7.57
2022-11-05T00:24:58.824Z,7.28
2022-11-05T00:27:26.398Z,7.20
2022-11-05T00:29:53.638Z,7.55
2022-11-05T00:32:23.403Z,7.07
2022-11-05T00:34:50.511Z,7.68
2022-11-05T00:37:17.954Z,6.75
2022-11-05T00:39:45.169Z,7.15
2022-11-05T00:42:31.134Z,8.38
2022-11-05T00:45:01.367Z,7.18
2022-11-05T00:47:48.355Z,7.22
2022-11-05T00:50:15.977Z,7.30
2022-11-05T00:52:55.513Z,7.65
2022-11-05T00:55:24.265Z,6.88
2022-11-05T00:57:52.139Z,7.90
2022-11-05T01:00:19.486Z,7.18
2022-11-05T01:02:47.046Z,8.05
2022-11-05T01:05:14.585Z,7.50
2022-11-05T01:07:42.046Z,7.30
2022-11-05T01:10:09.637Z,7.60
2022-11-05T01:12:37.453Z,8.25
2022-11-05T01:15:05.260Z,7.70
2022-11-05T01:17:32.741Z,7.10
2022-11-05T01:19:59.903Z,7.40
2022-11-05T01:22:27.422Z,8.10
2022-11-05T01:24:54.596Z,8.00
2022-11-05T01:27:22.126Z,8.20
2022-11-05T01:29:49.265Z,7.75
2022-11-05T01:32:16.852Z,7.95
2022-11-05T01:34:43.981Z,8.05
2022-11-05T01:37:11.460Z,7.63
2022-11-05T01:39:38.633Z,7.93
2022-11-05T01:42:23.216Z,7.35
2022-11-05T01:44:50.368Z,8.57
2022-11-05T01:47:30.099Z,7.78
2022-11-05T01:50:00.614Z,7.78
2022-11-05T01:52:32.167Z,7.78
2022-11-05T01:54:59.733Z,8.27
2022-11-05T01:57:27.949Z,7.45
2022-11-05T01:59:58.691Z,8.40
2022-11-05T02:02:26.382Z,8.23
2022-11-05T02:04:59.762Z,8.57
2022-11-05T02:07:29.598Z,8.20
2022-11-05T02:10:13.772Z,8.15
2022-11-05T02:12:45.722Z,7.78
2022-11-05T02:15:15.031Z,7.97
2022-11-05T02:18:26.990Z,8.27
2022-11-05T02:21:15.099Z,8.40
2022-11-05T02:24:24.505Z,7.90
2022-11-05T02:27:12.403Z,8.25
2022-11-05T02:30:08.615Z,8.77
2022-11-05T02:32:41.643Z,8.98
2022-11-05T02:35:27.723Z,8.20
2022-11-05T02:38:02.801Z,9.20
2022-11-05T02:40:53.354Z,8.68
2022-11-05T02:43:56.644Z,8.30
2022-11-05T02:46:30.910Z,8.25
2022-11-05T02:49:00.143Z,8.30
2022-11-05T02:51:44.616Z,8.80
2022-11-05T02:54:34.132Z,8.35
2022-11-05T02:57:03.947Z,9.45
2022-11-05T02:59:31.375Z,8.40
2022-11-05T03:02:00.382Z,8.13
2022-11-05T03:04:28.647Z,8.80
2022-11-05T03:07:14.756Z,8.77
2022-11-05T03:10:03.630Z,8.20
2022-11-05T03:12:52.212Z,10.07
2022-11-05T03:15:34.372Z,8.50
2022-11-05T03:18:02.939Z,8.93
2022-11-05T03:20:52.071Z,9.48
2022-11-05T03:23:22.643Z,8.20
2022-11-05T03:26:01.862Z,9.70
2022-11-05T03:28:33.635Z,8.52
2022-11-05T03:31:03.951Z,9.77
2022-11-05T03:33:34.786Z,8.70
2022-11-05T03:36:07.162Z,8.30
2022-11-05T03:38:39.092Z,8.80
2022-11-05T03:41:10.133Z,8.57
2022-11-05T03:43:43.278Z,8.30
2022-11-05T03:46:15.975Z,8.50
2022-11-05T03:48:48.696Z,8.55
2022-11-05T03:51:37.605Z,8.18
2022-11-05T03:54:05.825Z,9.18
2022-11-05T03:56:59.847Z,9.73
2022-11-05T03:59:29.764Z,9.55
2022-11-05T04:01:57.478Z,9.10
2022-11-05T04:04:25.668Z,9.15
2022-11-05T04:07:11.305Z,9.45
2022-11-05T04:09:57.516Z,9.10
2022-11-05T04:12:43.226Z,9.15
2022-11-05T04:15:11.024Z,9.02
2022-11-05T04:17:38.186Z,9.02
2022-11-05T04:20:24.567Z,8.77
2022-11-05T04:23:20.712Z,8.52
2022-11-05T04:25:48.201Z,8.80
2022-11-05T04:28:15.624Z,9.05
2022-11-05T04:30:46.105Z,8.50
2022-11-05T04:33:15.784Z,8.77
2022-11-05T04:35:45.882Z,8.80
2022-11-05T04:38:18.677Z,8.77
2022-11-05T04:40:47.793Z,8.80
2022-11-05T04:43:17.253Z,8.82
2022-11-05T04:45:45.638Z,10.10
2022-11-05T04:48:12.930Z,9.30
2022-11-05T04:50:40.484Z,9.45
2022-11-05T04:53:07.954Z,8.95
2022-11-05T04:55:35.507Z,9.48
2022-11-05T04:58:02.670Z,9.82
2022-11-05T05:00:30.172Z,8.63
2022-11-05T05:02:57.446Z,9.18
2022-11-05T05:05:24.985Z,9.10
2022-11-05T05:07:52.100Z,9.15
2022-11-05T05:10:19.676Z,9.43
2022-11-05T05:12:46.906Z,9.60
2022-11-05T05:15:14.363Z,8.52
2022-11-05T05:17:41.570Z,9.70
2022-11-05T05:20:28.061Z,9.35
2022-11-05T05:22:55.842Z,9.25
2022-11-05T05:25:23.611Z,9.68
2022-11-05T05:27:50.744Z,10.00
2022-11-05T05:30:18.350Z,10.30
2022-11-05T05:32:45.534Z,10.27
2022-11-05T05:35:13.075Z,9.55
2022-11-05T05:37:40.244Z,10.43
2022-11-05T05:40:08.882Z,9.68
2022-11-05T05:42:41.778Z,10.27
2022-11-05T05:45:11.563Z,9.73
2022-11-05T05:47:38.829Z,9.88
2022-11-05T05:50:06.585Z,9.77
2022-11-05T05:52:33.694Z,12.50
2022-11-05T05:55:01.414Z,11.15
2022-11-05T05:57:28.615Z,11.18
2022-11-05T05:59:56.200Z,11.23
2022-11-05T06:02:23.442Z,11.40
2022-11-05T06:04:50.888Z,10.60
2022-11-05T06:07:18.057Z,10.95
2022-11-05T06:09:45.579Z,10.50
2022-11-05T06:12:12.749Z,10.82
2022-11-05T06:14:40.285Z,11.85
2022-11-05T06:17:07.806Z,11.32
2022-11-05T06:19:35.599Z,10.32
2022-11-05T06:22:02.859Z,11.35
2022-11-05T06:24:30.442Z,11.00
2022-11-05T06:26:57.799Z,11.50
2022-11-05T06:29:25.292Z,12.10
2022-11-05T06:31:52.451Z,11.35
2022-11-05T06:34:19.830Z,12.18
2022-11-05T06:36:46.992Z,11.98
2022-11-05T06:39:14.436Z,11.73
2022-11-05T06:42:17.109Z,13.70
2022-11-05T06:46:56.061Z,11.40
2022-11-05T06:49:24.800Z,12.15
2022-11-05T06:51:52.654Z,11.27
2022-11-05T06:54:20.405Z,12.88
2022-11-05T06:56:47.586Z,11.65
2022-11-05T06:59:15.668Z,12.75
2022-11-05T07:01:42.874Z,14.13
2022-11-05T07:04:12.827Z,13.32
2022-11-05T07:06:40.015Z,11.55
2022-11-05T07:09:07.425Z,11.85
2022-11-05T07:11:34.572Z,13.68
2022-11-05T07:14:02.407Z,13.68
2022-11-05T07:16:29.575Z,13.38
2022-11-05T07:18:57.053Z,13.68
2022-11-05T07:21:24.225Z,13.68
2022-11-05T07:23:51.636Z,14.95
2022-11-05T07:26:18.803Z,16.73
2022-11-05T07:28:46.395Z,17.13
2022-11-05T07:31:13.504Z,16.25
2022-11-05T07:33:41.088Z,14.70
2022-11-05T07:36:08.742Z,16.25
2022-11-05T07:38:36.288Z,15.70
2022-11-05T07:41:03.550Z,14.45
2022-11-05T07:43:31.011Z,14.48
2022-11-05T07:45:58.332Z,14.32
2022-11-05T07:48:25.765Z,14.27
2022-11-05T07:50:55.557Z,16.52
2022-11-05T07:53:26.039Z,15.38
2022-11-05T07:55:53.286Z,13.70
2022-11-05T07:58:20.749Z,14.25
2022-11-05T08:00:48.115Z,14.45
2022-11-05T08:03:18.498Z,14.95
2022-11-05T08:05:47.953Z,14.05
2022-11-05T08:08:19.884Z,14.35
2022-11-05T08:10:47.353Z,15.27
2022-11-05T08:13:15.303Z,15.13
2022-11-05T08:15:43.338Z,16.35
2022-11-05T08:18:16.170Z,17.27
2022-11-05T08:20:44.757Z,16.45
2022-11-05T08:23:12.666Z,17.83
2022-11-05T08:25:40.760Z,17.55
2022-11-05T08:28:11.854Z,19.20
2022-11-05T08:30:40.937Z,21.08
2022-11-05T08:33:13.259Z,17.80
2022-11-05T08:35:41.163Z,18.30
2022-11-05T08:38:13.685Z,17.95
2022-11-05T08:40:42.357Z,16.83
2022-11-05T08:43:12.561Z,17.02
2022-11-05T08:45:41.028Z,18.83
2022-11-05T08:48:17.206Z,17.58
2022-11-05T08:50:46.611Z,17.48
2022-11-05T08:53:15.276Z,17.55
2022-11-05T08:55:44.127Z,17.35
2022-11-05T08:58:13.105Z,18.17
2022-11-05T09:00:41.044Z,17.92
2022-11-05T09:03:09.734Z,19.08
2022-11-05T09:05:39.361Z,17.23
2022-11-05T09:08:12.226Z,18.13
2022-11-05T09:10:39.953Z,17.67
2022-11-05T09:13:11.692Z,16.35
2022-11-05T09:15:42.374Z,17.48
2022-11-05T09:18:14.047Z,16.77
2022-11-05T09:20:41.361Z,16.35
2022-11-05T09:23:10.660Z,17.42
2022-11-05T09:25:38.209Z,16.33
2022-11-05T09:28:17.568Z,18.02
2022-11-05T09:30:48.104Z,17.90
2022-11-05T09:33:17.417Z,17.27
2022-11-05T09:35:44.708Z,19.08
2022-11-05T09:38:12.464Z,18.80
2022-11-05T09:41:02.683Z,19.60
2022-11-05T09:43:38.437Z,19.45
2022-11-05T09:46:18.615Z,18.98
2022-11-05T09:48:49.832Z,21.13
2022-11-05T09:51:23.630Z,24.35
2022-11-05T09:53:53.601Z,23.65
2022-11-05T09:56:29.906Z,21.48
2022-11-05T09:59:06.321Z,22.90
2022-11-05T10:01:38.220Z,23.27
2022-11-05T10:04:19.863Z,23.30
2022-11-05T10:06:51.786Z,23.45
2022-11-05T10:09:28.445Z,22.83
2022-11-05T10:12:21.121Z,22.83
2022-11-05T10:15:20.743Z,21.92
2022-11-05T10:18:04.481Z,21.33
2022-11-05T10:20:38.469Z,23.10
2022-11-05T10:23:17.368Z,21.85
2022-11-05T10:25:53.740Z,22.00
2022-11-05T10:28:23.870Z,23.60
2022-11-05T10:30:57.163Z,22.77
2022-11-05T10:33:43.777Z,21.80
2022-11-05T10:36:20.735Z,21.00
2022-11-05T10:38:48.055Z,21.60
2022-11-05T10:41:31.632Z,24.25
2022-11-05T10:44:17.610Z,23.20
2022-11-05T10:47:03.698Z,23.17
2022-11-05T10:49:44.372Z,23.90
2022-11-05T10:52:33.884Z,24.48
2022-11-05T10:55:04.818Z,23.90
2022-11-05T10:57:38.694Z,28.73
2022-11-05T11:00:15.227Z,24.92
2022-11-05T11:02:49.379Z,26.80
2022-11-05T11:05:23.770Z,24.58
2022-11-05T11:08:02.630Z,28.00
2022-11-05T11:10:34.608Z,27.83
2022-11-05T11:13:03.088Z,28.70
2022-11-05T11:15:35.217Z,29.67
2022-11-05T11:18:26.425Z,31.92
2022-11-05T11:20:53.681Z,29.15
2022-11-05T11:23:21.155Z,32.40
2022-11-05T11:25:53.325Z,29.60
2022-11-05T11:28:27.580Z,30.70
2022-11-05T11:31:09.797Z,30.60
2022-11-05T11:33:39.253Z,31.10
2022-11-05T11:36:07.310Z,34.03
2022-11-05T11:38:36.691Z,35.03
2022-11-05T11:41:22.623Z,33.85
2022-11-05T11:43:59.021Z,31.55
2022-11-05T11:46:30.232Z,28.65
2022-11-05T11:48:57.960Z,31.30
2022-11-05T11:51:49.451Z,33.30
2022-11-05T11:54:28.601Z,33.42
2022-11-05T11:56:56.483Z,32.30
2022-11-05T11:59:46.814Z,33.03
2022-11-05T12:02:35.483Z,32.78
2022-11-05T12:05:13.776Z,33.58
2022-11-05T12:07:58.103Z,33.17
2022-11-05T12:10:40.351Z,31.77
2022-11-05T12:13:20.522Z,30.88
2022-11-05T12:15:57.754Z,32.03
2022-11-05T12:21:51.377Z,30.38
2022-11-05T12:24:34.430Z,32.78
2022-11-05T12:27:30.705Z,32.80
2022-11-05T12:30:05.744Z,31.17
2022-11-05T12:32:57.956Z,30.25
2022-11-05T12:35:45.685Z,31.05
2022-11-05T12:38:44.936Z,30.33
2022-11-05T12:41:24.571Z,31.67
2022-11-05T12:44:04.546Z,31.63
2022-11-05T12:46:46.182Z,31.23
2022-11-05T12:49:22.639Z,31.48
2022-11-05T12:52:04.695Z,31.90
2022-11-05T12:54:58.564Z,32.85
2022-11-05T12:57:28.965Z,33.47
2022-11-05T13:00:06.216Z,34.20
2022-11-05T13:02:57.680Z,33.90
2022-11-05T13:05:43.458Z,32.70
2022-11-05T13:08:20.632Z,33.40
2022-11-05T13:10:57.283Z,33.25
2022-11-05T13:13:38.761Z,32.83
2022-11-05T13:16:15.111Z,34.03
2022-11-05T13:18:54.081Z,35.30
2022-11-05T13:21:25.075Z,35.63
2022-11-05T13:24:01.915Z,32.70
2022-11-05T13:26:29.367Z,34.38
2022-11-05T13:29:05.152Z,33.78
2022-11-05T13:31:43.583Z,32.27
2022-11-05T13:34:12.891Z,32.05
2022-11-05T13:37:11.459Z,34.22
2022-11-05T13:40:04.051Z,31.58
2022-11-05T13:42:53.046Z,34.72
2022-11-05T13:45:54.928Z,34.67
2022-11-05T13:48:37.492Z,32.60
2022-11-05T13:51:16.578Z,34.63
2022-11-05T13:53:55.724Z,32.90
2022-11-05T13:56:56.010Z,32.80
2022-11-05T14:00:00.769Z,33.88
2022-11-05T14:02:57.526Z,33.95
2022-11-05T14:05:34.741Z,31.83
2022-11-05T14:10:43.158Z,33.25
2022-11-05T14:13:26.658Z,34.60
2022-11-05T14:16:03.346Z,33.72
2022-11-05T14:18:48.485Z,33.90
2022-11-05T14:21:28.016Z,33.45
2022-11-05T14:23:57.573Z,35.60
2022-11-05T14:26:35.109Z,37.40
2022-11-05T14:29:05.255Z,34.75
2022-11-05T14:34:57.497Z,33.67
2022-11-05T14:37:26.468Z,35.08
2022-11-05T14:39:55.542Z,35.63
2022-11-05T14:42:31.422Z,37.63
2022-11-05T14:45:04.009Z,37.45
2022-11-05T14:47:38.557Z,37.20
2022-11-05T14:50:27.586Z,36.05
2022-11-05T14:52:57.740Z,36.33
2022-11-05T14:55:41.284Z,34.08
2022-11-05T14:58:29.418Z,34.50
2022-11-05T15:00:58.004Z,32.03
2022-11-05T15:03:45.425Z,38.17
2022-11-05T15:06:36.977Z,37.25
2022-11-05T15:09:19.248Z,35.63
2022-11-05T15:12:02.474Z,36.72
2022-11-05T15:14:40.473Z,36.08
2022-11-05T15:17:23.703Z,36.17
2022-11-05T15:19:52.440Z,34.08
2022-11-05T15:22:31.154Z,34.65
2022-11-05T15:24:58.842Z,33.08
2022-11-05T15:28:10.394Z,33.53
2022-11-05T15:30:40.382Z,32.80
2022-11-05T15:33:19.001Z,36.05
2022-11-05T15:35:46.273Z,33.60
2022-11-05T15:38:34.176Z,34.13
2022-11-05T15:41:04.735Z,34.00
2022-11-05T15:43:35.001Z,33.60
2022-11-05T15:46:08.008Z,33.00
2022-11-05T15:48:38.405Z,33.85
2022-11-05T15:51:06.311Z,34.45
2022-11-05T15:54:23.887Z,32.22
2022-11-05T15:56:50.531Z,33.92
2022-11-05T15:59:24.762Z,32.60
2022-11-05T16:01:54.475Z,34.28
2022-11-05T16:04:28.782Z,32.78
2022-11-05T16:07:08.892Z,32.58
2022-11-05T16:09:40.135Z,34.47
2022-11-05T16:12:21.758Z,34.90
2022-11-05T16:15:08.556Z,36.25
2022-11-05T16:17:53.611Z,39.13
2022-11-05T16:20:32.357Z,39.88
2022-11-05T16:23:06.088Z,38.20
2022-11-05T16:25:37.350Z,36.55
2022-11-05T16:28:22.197Z,38.45
2022-11-05T16:30:56.954Z,38.25
2022-11-05T16:33:26.237Z,36.42
2022-11-05T16:35:53.755Z,34.20
2022-11-05T16:38:21.602Z,37.88
2022-11-05T16:40:49.275Z,35.83
2022-11-05T16:43:26.548Z,37.60
2022-11-05T16:45:55.514Z,39.35
2022-11-05T16:48:22.737Z,36.10
2022-11-05T16:50:50.248Z,37.25
2022-11-05T16:53:17.910Z,38.55
2022-11-05T16:55:45.986Z,37.53
2022-11-05T16:58:22.064Z,36.65
2022-11-05T17:00:51.365Z,37.08
2022-11-05T17:03:18.824Z,33.33
2022-11-05T17:05:46.579Z,37.00
2022-11-05T17:08:14.173Z,35.42
2022-11-05T17:10:41.976Z,38.65
2022-11-05T17:13:15.022Z,41.70
2022-11-05T17:15:44.006Z,40.95
2022-11-05T17:18:16.947Z,33.85
2022-11-05T17:20:49.644Z,34.72
2022-11-05T17:23:19.772Z,33.67
2022-11-05T17:25:50.674Z,37.38
2022-11-05T17:28:19.123Z,32.85
2022-11-05T17:30:52.372Z,33.17
2022-11-05T17:33:21.402Z,36.55
2022-11-05T17:35:48.991Z,40.25
2022-11-05T17:38:16.380Z,34.92
2022-11-05T17:40:43.994Z,36.20
2022-11-05T17:43:11.784Z,36.95
2022-11-05T17:45:48.805Z,38.33
2022-11-05T17:48:16.815Z,43.08
2022-11-05T17:50:49.282Z,47.40
2022-11-05T17:53:18.919Z,43.28
2022-11-05T17:55:47.139Z,45.20
2022-11-05T17:58:15.057Z,39.17
2022-11-05T18:00:43.995Z,38.70
2022-11-05T18:03:12.544Z,40.83
2022-11-05T18:05:41.242Z,38.25
2022-11-05T18:08:09.288Z,38.65
2022-11-05T18:10:38.015Z,41.53
2022-11-05T18:13:06.057Z,38.03
2022-11-05T18:15:35.577Z,44.67
2022-11-05T18:18:02.792Z,41.95
2022-11-05T18:20:30.471Z,39.95
2022-11-05T18:22:57.730Z,36.47
2022-11-05T18:25:25.280Z,39.35
2022-11-05T18:27:52.585Z,40.47
2022-11-05T18:30:20.088Z,41.47
2022-11-05T18:32:48.068Z,38.53
2022-11-05T18:35:15.626Z,40.83
2022-11-05T18:37:43.433Z,40.58
2022-11-05T18:40:11.971Z,42.83
2022-11-05T18:42:39.406Z,37.45
2022-11-05T18:45:08.058Z,38.83
2022-11-05T18:47:35.564Z,40.65
2022-11-05T18:50:07.321Z,38.22
2022-11-05T18:52:34.499Z,43.90
2022-11-05T18:55:01.989Z,43.72
2022-11-05T18:57:29.388Z,41.20
2022-11-05T18:59:56.908Z,39.75
2022-11-05T19:02:24.254Z,46.63
2022-11-05T19:05:14.408Z,39.95
2022-11-05T19:07:39.909Z,41.78
2022-11-05T19:10:08.623Z,43.67
2022-11-05T19:12:35.816Z,40.35
2022-11-05T19:15:04.099Z,41.35
2022-11-05T19:17:32.983Z,39.97
2022-11-05T19:20:00.901Z,41.25
2022-11-05T19:22:28.165Z,42.85
2022-11-05T19:24:55.658Z,43.42
2022-11-05T19:27:23.384Z,41.85
2022-11-05T19:29:50.841Z,39.67
2022-11-05T19:32:18.236Z,38.90
2022-11-05T19:34:46.780Z,39.45
2022-11-05T19:37:14.001Z,42.33
2022-11-05T19:39:41.987Z,40.97
2022-11-05T19:42:09.344Z,44.42
2022-11-05T19:44:36.750Z,45.05
2022-11-05T19:47:04.057Z,43.10
2022-11-05T19:49:31.565Z,43.78
2022-11-05T19:51:58.858Z,41.53
2022-11-05T19:54:26.398Z,42.90
2022-11-05T19:56:53.611Z,41.60
2022-11-05T19:59:21.275Z,40.42
2022-11-05T20:01:48.676Z,40.28
2022-11-05T20:04:16.375Z,41.67
2022-11-05T20:06:43.561Z,40.95
2022-11-05T20:09:22.492Z,42.40
2022-11-05T20:11:56.207Z,44.60
2022-11-05T20:14:25.835Z,43.45
2022-11-05T20:16:53.569Z,38.50
2022-11-05T20:19:22.458Z,41.35
2022-11-05T20:21:49.785Z,78.32
2022-11-05T20:24:24.322Z,52.90
2022-11-05T20:26:54.216Z,43.72
2022-11-05T20:29:22.312Z,39.08
2022-11-05T20:31:50.088Z,53.90
2022-11-05T20:34:17.998Z,54.83
2022-11-05T20:36:45.139Z,66.40
2022-11-05T20:39:13.016Z,43.20
2022-11-05T20:41:40.336Z,45.42
2022-11-05T20:44:07.939Z,43.65
2022-11-05T20:46:35.277Z,44.45
2022-11-05T20:49:02.791Z,44.78
2022-11-05T20:51:30.193Z,47.20
2022-11-05T20:54:00.066Z,45.30
2022-11-05T20:56:29.809Z,49.63
2022-11-05T20:58:58.803Z,47.85
2022-11-05T21:01:30.867Z,45.33
2022-11-05T21:03:59.725Z,55.55
2022-11-05T21:06:27.097Z,59.47
2022-11-05T21:08:55.059Z,46.17
2022-11-05T21:11:22.334Z,41.70
2022-11-05T21:13:50.261Z,40.58
2022-11-05T21:16:19.473Z,44.35
2022-11-05T21:18:47.668Z,46.65
2022-11-05T21:21:19.311Z,42.08
2022-11-05T21:23:47.641Z,39.10
2022-11-05T21:26:15.453Z,41.70
2022-11-05T21:28:43.158Z,41.08
2022-11-05T21:31:10.836Z,41.40
2022-11-05T21:33:38.561Z,45.38
2022-11-05T21:36:12.177Z,42.03
2022-11-05T21:38:40.966Z,42.40
2022-11-05T21:41:10.552Z,40.58
2022-11-05T21:43:39.110Z,43.72
2022-11-05T21:46:06.473Z,40.85
2022-11-05T21:48:34.544Z,42.83
2022-11-05T21:51:20.492Z,43.45
2022-11-05T21:54:06.405Z,45.97
2022-11-05T21:56:52.385Z,38.78
2022-11-05T21:59:42.754Z,39.85
2022-11-05T22:02:12.374Z,35.22
2022-11-05T22:04:42.584Z,36.88
2022-11-05T22:07:11.827Z,36.97
2022-11-05T22:09:39.657Z,37.17
2022-11-05T22:12:07.757Z,37.30
2022-11-05T22:14:35.586Z,37.03
2022-11-05T22:17:02.891Z,37.35
2022-11-05T22:19:30.927Z,39.88
2022-11-05T22:21:58.187Z,34.25
2022-11-05T22:24:28.144Z,34.47
2022-11-05T22:26:56.169Z,35.58
2022-11-05T22:29:23.686Z,37.63
2022-11-05T22:31:50.966Z,42.63
2022-11-05T22:34:21.408Z,39.40
2022-11-05T22:36:48.695Z,36.35
2022-11-05T22:39:16.913Z,38.03
2022-11-05T22:41:44.437Z,37.47
2022-11-05T22:44:14.129Z,37.15
2022-11-05T22:46:41.995Z,39.25
2022-11-05T22:49:09.721Z,35.85
2022-11-05T22:51:38.628Z,39.83
2022-11-05T22:54:07.541Z,38.63
2022-11-05T22:56:38.830Z,39.08
2022-11-05T22:59:07.654Z,37.95
2022-11-05T23:01:35.132Z,40.20
2022-11-05T23:04:02.809Z,32.80
2022-11-05T23:06:52.372Z,33.78
2022-11-05T23:09:42.177Z,33.42
2022-11-05T23:12:32.087Z,30.35
2022-11-05T23:15:04.131Z,35.58
2022-11-05T23:18:03.974Z,34.30
2022-11-05T23:20:50.088Z,36.22
2022-11-05T23:23:36.205Z,33.75
2022-11-05T23:26:26.647Z,34.40
2022-11-05T23:28:53.966Z,34.60
2022-11-05T23:31:39.881Z,34.15
2022-11-05T23:34:07.049Z,33.65
2022-11-05T23:36:53.458Z,32.80
2022-11-05T23:39:20.601Z,33.10
2022-11-05T23:42:06.664Z,31.73
2022-11-05T23:44:52.218Z,30.13
2022-11-05T23:47:38.232Z,30.42
2022-11-05T23:50:05.733Z,30.70
2022-11-05T23:52:33.398Z,29.48
2022-11-05T23:55:00.631Z,30.75
2022-11-05T23:57:28.028Z,32.55
2022-11-05T23:59:55.233Z,29.20
